createdAt,value
2018-02-20T00:01:43.344Z,83.80
2018-02-20T00:04:17.162Z,83.60
2018-02-20T00:06:46.025Z,83.40
2018-02-20T00:09:14.642Z,83.30
2018-02-20T00:11:42.800Z,83.60
2018-02-20T00:14:10.951Z,83.10
2018-02-20T00:16:39.062Z,82.80
2018-02-20T00:19:07.195Z,82.50
2018-02-20T00:21:35.306Z,82.80
2018-02-20T00:24:04.532Z,83.00
2018-02-20T00:26:32.642Z,83.20
2018-02-20T00:29:00.763Z,82.90
2018-02-20T00:31:28.870Z,83.40
2018-02-20T00:33:57.002Z,83.40
2018-02-20T00:36:25.109Z,83.20
2018-02-20T00:38:53.232Z,83.30
2018-02-20T00:41:22.203Z,83.30
2018-02-20T00:43:50.335Z,83.20
2018-02-20T00:46:18.434Z,83.10
2018-02-20T00:48:47.783Z,82.30
2018-02-20T00:51:15.896Z,82.30
2018-02-20T00:53:44.027Z,81.80
2018-02-20T00:56:12.131Z,82.30
2018-02-20T00:58:40.259Z,83.30
2018-02-20T01:01:09.130Z,84.80
2018-02-20T01:03:37.267Z,84.70
2018-02-20T01:06:05.378Z,85.30
2018-02-20T01:08:34.876Z,85.50
2018-02-20T01:11:04.186Z,85.00
2018-02-20T01:13:32.325Z,84.30
2018-02-20T01:16:00.423Z,84.80
2018-02-20T01:18:28.622Z,84.60
2018-02-20T01:20:57.493Z,84.80
2018-02-20T01:23:26.998Z,84.80
2018-02-20T01:25:55.093Z,84.60
2018-02-20T01:28:23.994Z,84.00
2018-02-20T01:30:52.106Z,84.00
2018-02-20T01:33:20.240Z,84.20
2018-02-20T01:35:49.119Z,86.10
2018-02-20T01:38:18.472Z,86.30
2018-02-20T01:40:46.574Z,86.30
2018-02-20T01:43:14.702Z,86.60
2018-02-20T01:45:42.809Z,86.40
2018-02-20T01:48:12.810Z,85.90
2018-02-20T01:50:53.722Z,85.60
2018-02-20T01:53:21.842Z,85.50
2018-02-20T01:55:49.974Z,85.50
2018-02-20T01:58:18.862Z,85.60
2018-02-20T02:00:47.733Z,85.80
2018-02-20T02:03:15.874Z,85.80
2018-02-20T02:05:43.982Z,85.70
2018-02-20T02:08:12.109Z,86.10
2018-02-20T02:10:40.215Z,86.30
2018-02-20T02:13:10.123Z,85.90
2018-02-20T02:15:38.218Z,86.20
2018-02-20T02:18:06.352Z,85.10
2018-02-20T02:20:34.823Z,85.10
2018-02-20T02:23:02.926Z,85.00
2018-02-20T02:25:32.567Z,85.90
2018-02-20T02:28:01.472Z,85.20
2018-02-20T02:30:30.350Z,85.20
2018-02-20T02:32:59.225Z,85.50
2018-02-20T02:35:27.350Z,85.30
2018-02-20T02:37:55.462Z,85.20
2018-02-20T02:40:23.599Z,84.90
2018-02-20T02:42:51.728Z,84.70
2018-02-20T02:45:19.851Z,84.70
2018-02-20T02:47:47.970Z,84.30
2018-02-20T02:50:16.111Z,84.40
2018-02-20T02:52:44.212Z,85.40
2018-02-20T02:55:12.343Z,86.10
2018-02-20T02:57:40.447Z,86.50
2018-02-20T03:00:09.060Z,86.00
2018-02-20T03:02:37.928Z,85.00
2018-02-20T03:05:07.429Z,85.00
2018-02-20T03:07:35.538Z,84.80
2018-02-20T03:10:03.696Z,84.70
2018-02-20T03:12:32.565Z,84.30
2018-02-20T03:15:00.717Z,84.30
2018-02-20T03:17:28.814Z,84.50
2018-02-20T03:19:58.046Z,84.20
2018-02-20T03:22:27.914Z,84.30
2018-02-20T03:24:57.414Z,85.30
2018-02-20T03:27:26.270Z,85.30
2018-02-20T03:29:55.386Z,85.00
2018-02-20T03:32:25.309Z,86.00
2018-02-20T03:34:55.603Z,86.40
2018-02-20T03:37:25.558Z,85.30
2018-02-20T03:40:06.052Z,85.50
2018-02-20T03:42:42.590Z,85.70
2018-02-20T03:45:17.854Z,85.70
2018-02-20T03:47:53.986Z,85.50
2018-02-20T03:50:34.959Z,85.50
2018-02-20T03:53:05.562Z,85.50
2018-02-20T03:55:33.710Z,85.90
2018-02-20T03:58:02.629Z,85.90
2018-02-20T04:00:37.667Z,85.90
2018-02-20T04:03:12.309Z,86.00
2018-02-20T04:05:42.300Z,86.00
2018-02-20T04:08:11.165Z,84.70
2018-02-20T04:10:40.172Z,84.70
2018-02-20T04:13:11.192Z,84.40
2018-02-20T04:15:40.018Z,84.40
2018-02-20T04:18:09.346Z,84.90
2018-02-20T04:20:38.128Z,85.70
2018-02-20T04:23:08.261Z,86.20
2018-02-20T04:25:36.652Z,86.10
2018-02-20T04:28:05.623Z,85.70
2018-02-20T04:30:33.928Z,85.60
2018-02-20T04:33:02.057Z,85.20
2018-02-20T04:35:30.195Z,84.80
2018-02-20T04:37:58.790Z,84.80
2018-02-20T04:40:27.702Z,85.50
2018-02-20T04:42:55.821Z,85.30
2018-02-20T04:45:24.334Z,85.70
2018-02-20T04:47:52.452Z,84.80
2018-02-20T04:50:20.589Z,85.00
2018-02-20T04:52:49.470Z,84.70
2018-02-20T04:55:17.608Z,84.70
2018-02-20T04:57:45.724Z,84.70
2018-02-20T05:00:14.109Z,84.60
2018-02-20T05:02:42.987Z,85.70
2018-02-20T05:05:12.110Z,85.70
2018-02-20T05:07:40.239Z,84.90
2018-02-20T05:10:08.376Z,85.30
2018-02-20T05:12:36.484Z,85.60
2018-02-20T05:15:04.617Z,86.10
2018-02-20T05:17:32.740Z,85.60
2018-02-20T05:20:00.889Z,85.20
2018-02-20T05:22:30.336Z,85.00
2018-02-20T05:24:59.233Z,84.90
2018-02-20T05:27:28.108Z,84.30
2018-02-20T05:29:56.250Z,84.30
2018-02-20T05:32:25.099Z,84.60
2018-02-20T05:34:53.681Z,84.40
2018-02-20T05:37:21.794Z,85.00
2018-02-20T05:39:50.793Z,85.00
2018-02-20T05:42:18.901Z,84.80
2018-02-20T05:44:47.036Z,85.30
2018-02-20T05:47:15.169Z,84.70
2018-02-20T05:49:44.090Z,84.70
2018-02-20T05:52:12.208Z,84.70
2018-02-20T05:54:40.373Z,84.50
2018-02-20T05:57:10.904Z,84.00
2018-02-20T05:59:39.039Z,84.00
2018-02-20T06:02:08.348Z,84.20
2018-02-20T06:04:37.498Z,84.20
2018-02-20T06:07:06.183Z,84.20
2018-02-20T06:09:35.166Z,85.00
2018-02-20T06:12:03.285Z,84.90
2018-02-20T06:14:32.067Z,85.00
2018-02-20T06:17:00.196Z,84.90
2018-02-20T06:19:28.315Z,85.10
2018-02-20T06:21:56.987Z,85.30
2018-02-20T06:24:25.110Z,84.90
2018-02-20T06:26:53.245Z,84.60
2018-02-20T06:29:21.360Z,84.20
2018-02-20T06:31:49.497Z,84.30
2018-02-20T06:34:17.603Z,84.60
2018-02-20T06:36:45.735Z,84.90
2018-02-20T06:39:13.877Z,84.90
2018-02-20T06:41:42.466Z,84.80
2018-02-20T06:44:11.869Z,84.00
2018-02-20T06:46:40.784Z,83.90
2018-02-20T06:49:08.903Z,83.90
2018-02-20T06:51:37.061Z,83.80
2018-02-20T06:54:05.189Z,83.60
2018-02-20T06:56:34.128Z,83.50
2018-02-20T06:59:04.040Z,83.40
2018-02-20T07:01:32.941Z,82.60
2018-02-20T07:04:01.147Z,82.60
2018-02-20T07:06:29.304Z,83.10
2018-02-20T07:08:57.415Z,82.20
2018-02-20T07:11:25.570Z,81.30
2018-02-20T07:13:54.150Z,81.20
2018-02-20T07:16:22.287Z,80.50
2018-02-20T07:18:50.400Z,80.20
2018-02-20T07:21:19.309Z,80.10
2018-02-20T07:23:47.428Z,80.00
2018-02-20T07:26:16.929Z,79.20
2018-02-20T07:28:45.492Z,78.60
2018-02-20T07:31:15.678Z,77.40
2018-02-20T07:33:44.991Z,74.60
2018-02-20T07:36:13.143Z,74.50
2018-02-20T07:38:43.475Z,70.10
2018-02-20T07:41:12.390Z,63.80
2018-02-20T07:43:41.296Z,62.20
2018-02-20T07:46:11.223Z,61.30
2018-02-20T07:48:39.351Z,59.70
2018-02-20T07:51:08.258Z,56.70
2018-02-20T07:53:36.368Z,56.70
2018-02-20T07:56:04.510Z,55.90
2018-02-20T07:58:32.620Z,55.30
2018-02-20T08:01:00.758Z,55.20
2018-02-20T08:03:28.877Z,55.00
2018-02-20T08:05:57.021Z,54.30
2018-02-20T08:08:25.150Z,52.30
2018-02-20T08:10:54.098Z,49.40
2018-02-20T08:13:22.196Z,49.30
2018-02-20T08:15:51.320Z,47.90
2018-02-20T08:18:20.214Z,48.00
2018-02-20T08:20:49.603Z,47.30
2018-02-20T08:23:18.493Z,46.90
2018-02-20T08:25:47.399Z,44.80
2018-02-20T08:28:15.532Z,45.40
2018-02-20T08:30:44.140Z,43.80
2018-02-20T08:33:13.032Z,42.20
2018-02-20T08:35:41.940Z,40.70
2018-02-20T08:38:10.505Z,40.20
2018-02-20T08:40:41.105Z,39.90
2018-02-20T08:43:09.225Z,39.90
2018-02-20T08:45:37.916Z,39.70
2018-02-20T08:48:06.034Z,40.00
2018-02-20T08:50:34.575Z,40.00
2018-02-20T08:53:02.696Z,39.80
2018-02-20T08:55:30.853Z,39.60
2018-02-20T08:57:58.980Z,40.60
2018-02-20T09:00:27.871Z,39.00
2018-02-20T09:02:56.787Z,38.50
2018-02-20T09:05:25.440Z,38.50
2018-02-20T09:07:54.361Z,38.40
2018-02-20T09:10:22.521Z,38.40
2018-02-20T09:12:50.678Z,39.10
2018-02-20T09:15:19.563Z,41.60
2018-02-20T09:17:47.754Z,41.60
2018-02-20T09:20:16.897Z,43.10
2018-02-20T09:22:45.090Z,43.10
2018-02-20T09:25:13.209Z,43.50
2018-02-20T09:27:41.366Z,43.80
2018-02-20T09:30:10.272Z,45.70
2018-02-20T09:32:38.422Z,45.70
2018-02-20T09:35:06.604Z,45.80
2018-02-20T09:37:35.507Z,45.10
2018-02-20T09:40:03.636Z,45.10
2018-02-20T09:42:31.772Z,45.30
2018-02-20T09:44:59.896Z,45.90
2018-02-20T09:47:28.465Z,46.90
2018-02-20T09:49:57.281Z,46.00
2018-02-20T09:52:25.829Z,47.40
2018-02-20T09:54:54.055Z,46.40
2018-02-20T09:57:22.225Z,45.90
2018-02-20T09:59:51.133Z,46.00
2018-02-20T10:02:19.268Z,45.90
2018-02-20T10:04:47.391Z,46.30
2018-02-20T10:07:15.531Z,46.80
2018-02-20T10:09:44.425Z,46.70
2018-02-20T10:12:13.342Z,46.50
2018-02-20T10:14:41.456Z,46.50
2018-02-20T10:17:09.595Z,47.30
2018-02-20T10:19:37.961Z,48.60
2018-02-20T10:22:06.381Z,49.10
2018-02-20T10:24:34.515Z,50.10
2018-02-20T10:27:02.661Z,51.00
2018-02-20T10:29:31.541Z,50.50
2018-02-20T10:31:59.680Z,50.50
2018-02-20T10:34:27.793Z,51.20
2018-02-20T10:36:55.936Z,50.00
2018-02-20T10:39:24.054Z,49.90
2018-02-20T10:41:53.088Z,50.80
2018-02-20T10:44:21.201Z,50.80
2018-02-20T10:46:49.430Z,50.00
2018-02-20T10:49:17.554Z,51.10
2018-02-20T10:51:46.643Z,51.60
2018-02-20T10:54:14.762Z,51.60
2018-02-20T10:56:42.916Z,51.10
2018-02-20T10:59:11.619Z,51.30
2018-02-20T11:01:39.891Z,51.40
2018-02-20T11:04:08.740Z,51.70
2018-02-20T11:06:36.881Z,51.70
2018-02-20T11:09:04.995Z,50.40
2018-02-20T11:11:33.136Z,51.10
2018-02-20T11:14:01.266Z,50.70
2018-02-20T11:16:29.493Z,52.30
2018-02-20T11:18:58.509Z,53.90
2018-02-20T11:21:26.732Z,53.90
2018-02-20T11:23:55.768Z,53.80
2018-02-20T11:26:23.940Z,54.80
2018-02-20T11:28:52.061Z,54.60
2018-02-20T11:31:20.221Z,54.60
2018-02-20T11:33:48.345Z,54.20
2018-02-20T11:36:16.462Z,54.10
2018-02-20T11:38:45.659Z,53.40
2018-02-20T11:41:14.539Z,53.30
2018-02-20T11:43:42.676Z,53.30
2018-02-20T11:46:10.795Z,53.30
2018-02-20T11:48:39.927Z,53.20
2018-02-20T11:51:08.146Z,53.30
2018-02-20T11:53:36.306Z,53.70
2018-02-20T11:56:04.425Z,53.40
2018-02-20T11:58:32.574Z,52.90
2018-02-20T12:01:00.680Z,53.40
2018-02-20T12:03:28.826Z,52.20
2018-02-20T12:05:57.704Z,52.00
2018-02-20T12:08:25.845Z,51.90
2018-02-20T12:10:53.964Z,52.80
2018-02-20T12:13:23.159Z,51.80
2018-02-20T12:15:51.764Z,51.70
2018-02-20T12:18:19.975Z,51.20
2018-02-20T12:20:48.115Z,52.20
2018-02-20T12:23:16.252Z,52.00
2018-02-20T12:25:44.372Z,52.30
2018-02-20T12:28:12.516Z,52.70
2018-02-20T12:30:41.812Z,52.80
2018-02-20T12:33:11.180Z,53.10
2018-02-20T12:35:39.309Z,53.00
2018-02-20T12:38:07.485Z,53.30
2018-02-20T12:40:35.620Z,51.90
2018-02-20T12:43:03.779Z,51.50
2018-02-20T12:45:31.904Z,51.90
2018-02-20T12:48:00.186Z,51.40
2018-02-20T12:50:29.109Z,52.00
2018-02-20T12:52:57.501Z,52.00
2018-02-20T12:55:26.534Z,53.40
2018-02-20T12:57:55.437Z,53.80
2018-02-20T13:00:23.564Z,53.80
2018-02-20T13:02:51.707Z,53.80
2018-02-20T13:05:19.830Z,53.90
2018-02-20T13:07:48.791Z,54.70
2018-02-20T13:10:16.920Z,54.60
2018-02-20T13:12:45.069Z,54.50
2018-02-20T13:15:13.188Z,54.50
2018-02-20T13:17:41.512Z,54.50
2018-02-20T13:20:10.578Z,54.20
2018-02-20T13:22:38.709Z,54.20
2018-02-20T13:25:06.837Z,54.30
2018-02-20T13:27:34.988Z,53.90
2018-02-20T13:30:03.114Z,54.00
2018-02-20T13:32:32.033Z,54.10
2018-02-20T13:35:00.159Z,54.10
2018-02-20T13:37:28.314Z,54.90
2018-02-20T13:39:56.434Z,54.80
2018-02-20T13:42:25.466Z,54.30
2018-02-20T13:44:53.635Z,55.30
2018-02-20T13:47:21.784Z,56.10
2018-02-20T13:49:49.917Z,56.30
2018-02-20T13:52:18.066Z,56.30
2018-02-20T13:54:46.186Z,56.60
2018-02-20T13:57:15.301Z,57.60
2018-02-20T13:59:43.422Z,57.60
2018-02-20T14:02:11.568Z,57.40
2018-02-20T14:04:39.709Z,55.80
2018-02-20T14:07:08.608Z,56.30
2018-02-20T14:09:36.726Z,56.20
2018-02-20T14:12:06.130Z,55.40
2018-02-20T14:14:34.281Z,56.20
2018-02-20T14:17:02.402Z,55.80
2018-02-20T14:19:30.551Z,56.00
2018-02-20T14:21:58.679Z,56.40
2018-02-20T14:24:26.832Z,56.80
2018-02-20T14:26:55.722Z,56.70
2018-02-20T14:29:24.629Z,56.70
2018-02-20T14:31:52.773Z,56.70
2018-02-20T14:34:20.910Z,56.00
2018-02-20T14:36:49.032Z,56.00
2018-02-20T14:39:19.077Z,57.00
2018-02-20T14:41:47.212Z,57.00
2018-02-20T14:44:15.370Z,57.80
2018-02-20T14:46:43.474Z,57.50
2018-02-20T14:49:12.388Z,58.30
2018-02-20T14:51:40.521Z,58.30
2018-02-20T14:54:08.662Z,58.10
2018-02-20T14:56:36.776Z,58.50
2018-02-20T14:59:04.926Z,58.80
2018-02-20T15:01:33.037Z,58.30
2018-02-20T15:04:01.936Z,59.50
2018-02-20T15:06:30.063Z,59.50
2018-02-20T15:08:58.218Z,60.00
2018-02-20T15:11:26.388Z,60.50
2018-02-20T15:13:54.533Z,61.50
2018-02-20T15:16:22.666Z,61.80
2018-02-20T15:18:50.800Z,62.30
2018-02-20T15:21:18.915Z,62.50
2018-02-20T15:23:47.066Z,62.90
2018-02-20T15:26:15.194Z,63.10
2018-02-20T15:28:44.102Z,63.20
2018-02-20T15:31:12.222Z,63.20
2018-02-20T15:33:40.533Z,63.10
2018-02-20T15:36:09.416Z,62.20
2018-02-20T15:38:38.338Z,61.70
2018-02-20T15:41:06.458Z,61.50
2018-02-20T15:43:34.615Z,61.50
2018-02-20T15:46:03.510Z,61.20
2018-02-20T15:48:31.664Z,61.20
2018-02-20T15:50:59.795Z,60.90
2018-02-20T15:53:27.937Z,61.50
2018-02-20T15:55:56.056Z,61.70
2018-02-20T15:58:25.454Z,61.40
2018-02-20T16:00:54.346Z,62.30
2018-02-20T16:03:23.262Z,62.40
2018-02-20T16:05:51.372Z,62.30
2018-02-20T16:08:20.683Z,62.00
2018-02-20T16:10:48.799Z,61.50
2018-02-20T16:13:16.945Z,61.50
2018-02-20T16:15:48.128Z,62.20
2018-02-20T16:18:16.276Z,62.10
2018-02-20T16:20:45.158Z,61.20
2018-02-20T16:23:14.083Z,62.20
2018-02-20T16:25:42.339Z,62.10
2018-02-20T16:28:11.304Z,62.30
2018-02-20T16:30:39.436Z,62.30
2018-02-20T16:33:07.581Z,62.80
2018-02-20T16:35:36.477Z,61.70
2018-02-20T16:38:04.639Z,61.70
2018-02-20T16:40:33.531Z,61.10
2018-02-20T16:43:02.443Z,61.10
2018-02-20T16:45:31.764Z,61.10
2018-02-20T16:47:59.904Z,61.30
2018-02-20T16:50:28.800Z,60.80
2018-02-20T16:52:57.695Z,60.80
2018-02-20T16:55:25.812Z,60.80
2018-02-20T16:57:53.989Z,60.60
2018-02-20T17:00:22.135Z,60.80
2018-02-20T17:02:50.270Z,61.60
2018-02-20T17:05:19.200Z,62.90
2018-02-20T17:07:47.322Z,62.80
2018-02-20T17:10:15.472Z,62.70
2018-02-20T17:12:43.595Z,61.50
2018-02-20T17:15:12.496Z,61.70
2018-02-20T17:17:40.976Z,61.60
2018-02-20T17:20:09.153Z,62.70
2018-02-20T17:22:37.287Z,63.40
2018-02-20T17:25:05.449Z,63.70
2018-02-20T17:27:33.685Z,64.10
2018-02-20T17:30:01.853Z,64.50
2018-02-20T17:32:29.976Z,64.20
2018-02-20T17:34:59.890Z,66.30
2018-02-20T17:37:28.802Z,67.80
2018-02-20T17:39:57.729Z,67.20
2018-02-20T17:42:25.861Z,67.20
2018-02-20T17:44:54.005Z,67.10
2018-02-20T17:47:22.335Z,66.60
2018-02-20T17:49:51.575Z,66.60
2018-02-20T17:52:19.761Z,66.60
2018-02-20T17:54:48.797Z,66.30
2018-02-20T17:57:18.014Z,65.50
2018-02-20T17:59:46.578Z,65.60
2018-02-20T18:02:14.855Z,66.20
2018-02-20T18:04:43.776Z,66.60
2018-02-20T18:07:12.096Z,66.60
2018-02-20T18:09:40.232Z,66.80
2018-02-20T18:12:08.348Z,66.70
2018-02-20T18:14:36.509Z,66.00
2018-02-20T18:17:04.653Z,66.20
2018-02-20T18:19:32.826Z,67.10
2018-02-20T18:22:01.101Z,66.80
2018-02-20T18:24:29.410Z,67.70
2018-02-20T18:26:58.618Z,68.10
2018-02-20T18:29:26.896Z,68.10
2018-02-20T18:31:55.004Z,68.00
2018-02-20T18:34:23.915Z,70.30
2018-02-20T18:36:52.038Z,69.60
2018-02-20T18:39:20.168Z,68.30
2018-02-20T18:41:48.297Z,69.40
2018-02-20T18:44:16.455Z,71.90
2018-02-20T18:46:44.606Z,71.50
2018-02-20T18:49:12.765Z,71.10
2018-02-20T18:51:40.994Z,70.60
2018-02-20T18:54:09.160Z,70.10
2018-02-20T18:56:37.283Z,70.20
2018-02-20T18:59:05.432Z,71.50
2018-02-20T19:01:34.360Z,70.90
2018-02-20T19:04:02.509Z,70.90
2018-02-20T19:06:30.658Z,72.00
2018-02-20T19:08:58.810Z,71.20
2018-02-20T19:11:26.956Z,71.80
2018-02-20T19:13:55.099Z,73.30
2018-02-20T19:16:24.001Z,72.60
2018-02-20T19:18:52.841Z,72.50
2018-02-20T19:21:20.965Z,71.70
2018-02-20T19:23:49.117Z,71.00
2018-02-20T19:26:18.745Z,69.50
2018-02-20T19:28:46.926Z,70.10
2018-02-20T19:31:15.056Z,71.00
2018-02-20T19:33:43.205Z,71.40
2018-02-20T19:36:11.359Z,71.70
2018-02-20T19:38:39.486Z,71.20
2018-02-20T19:41:07.634Z,70.40
2018-02-20T19:43:36.512Z,69.10
2018-02-20T19:46:04.665Z,69.00
2018-02-20T19:48:32.802Z,68.70
2018-02-20T19:51:00.953Z,68.90
2018-02-20T19:53:29.073Z,69.00
2018-02-20T19:55:57.239Z,69.80
2018-02-20T19:58:26.159Z,69.80
2018-02-20T20:00:54.306Z,69.70
2018-02-20T20:03:23.200Z,70.90
2018-02-20T20:05:51.373Z,70.90
2018-02-20T20:08:19.515Z,71.60
2018-02-20T20:10:47.738Z,72.70
2018-02-20T20:13:15.882Z,72.00
2018-02-20T20:15:44.792Z,71.50
2018-02-20T20:18:12.908Z,71.50
2018-02-20T20:20:47.936Z,72.20
2018-02-20T20:23:09.190Z,72.70
2018-02-20T20:25:38.130Z,72.60
2018-02-20T20:28:06.261Z,72.60
2018-02-20T20:30:35.187Z,73.40
2018-02-20T20:33:03.305Z,73.30
2018-02-20T20:35:31.453Z,73.00
2018-02-20T20:37:59.579Z,73.30
2018-02-20T20:40:28.503Z,73.70
2018-02-20T20:42:56.648Z,73.70
2018-02-20T20:45:25.554Z,73.20
2018-02-20T20:47:53.690Z,73.20
2018-02-20T20:50:22.616Z,73.20
2018-02-20T20:52:50.855Z,73.10
2018-02-20T20:55:19.021Z,74.00
2018-02-20T20:57:47.139Z,74.40
2018-02-20T21:00:15.292Z,73.80
2018-02-20T21:02:44.180Z,73.80
2018-02-20T21:05:12.534Z,73.80
2018-02-20T21:07:41.458Z,74.30
2018-02-20T21:10:10.488Z,74.40
2018-02-20T21:12:38.614Z,74.40
2018-02-20T21:15:06.756Z,74.10
2018-02-20T21:17:34.889Z,73.70
2018-02-20T21:20:03.029Z,74.00
2018-02-20T21:22:31.151Z,73.80
2018-02-20T21:24:59.340Z,75.00
2018-02-20T21:27:28.245Z,73.40
2018-02-20T21:29:56.410Z,74.20
2018-02-20T21:32:24.608Z,73.90
2018-02-20T21:34:52.759Z,74.10
2018-02-20T21:37:20.914Z,73.80
2018-02-20T21:39:49.049Z,73.80
2018-02-20T21:42:17.948Z,75.90
2018-02-20T21:44:46.860Z,75.90
2018-02-20T21:47:14.990Z,75.90
2018-02-20T21:49:43.150Z,75.50
2018-02-20T21:52:11.280Z,74.80
2018-02-20T21:54:39.413Z,75.20
2018-02-20T21:57:07.538Z,74.80
2018-02-20T21:59:35.702Z,75.50
2018-02-20T22:02:03.929Z,75.30
2018-02-20T22:04:32.081Z,76.00
2018-02-20T22:07:00.209Z,75.80
2018-02-20T22:09:28.336Z,75.20
2018-02-20T22:11:56.468Z,74.60
2018-02-20T22:14:24.596Z,75.00
2018-02-20T22:16:52.745Z,75.50
2018-02-20T22:19:22.312Z,76.40
2018-02-20T22:21:50.449Z,76.00
2018-02-20T22:24:18.560Z,75.70
2018-02-20T22:26:46.713Z,75.70
2018-02-20T22:29:15.608Z,75.40
2018-02-20T22:31:44.521Z,75.50
2018-02-20T22:34:12.640Z,75.50
2018-02-20T22:36:40.786Z,75.90
2018-02-20T22:39:08.912Z,76.40
2018-02-20T22:41:37.824Z,76.50
2018-02-20T22:44:05.954Z,76.30
2018-02-20T22:46:34.113Z,76.40
2018-02-20T22:49:02.235Z,76.60
2018-02-20T22:51:31.144Z,76.40
2018-02-20T22:53:59.275Z,76.40
2018-02-20T22:56:28.196Z,76.60
2018-02-20T22:58:56.333Z,76.50
2018-02-20T23:01:24.481Z,77.40
2018-02-20T23:03:52.615Z,77.40
2018-02-20T23:06:20.777Z,77.50
2018-02-20T23:08:49.652Z,76.90
2018-02-20T23:11:38.508Z,76.90
2018-02-20T23:14:06.653Z,76.80
2018-02-20T23:16:34.804Z,76.80
2018-02-20T23:19:02.938Z,76.60
2018-02-20T23:21:31.072Z,76.30
2018-02-20T23:23:59.195Z,76.30
2018-02-20T23:26:28.104Z,76.10
2018-02-20T23:28:56.980Z,76.50
2018-02-20T23:31:25.896Z,76.90
2018-02-20T23:33:54.021Z,76.80
2018-02-20T23:36:22.180Z,76.90
2018-02-20T23:38:50.298Z,76.90
2018-02-20T23:41:19.209Z,77.30
2018-02-20T23:43:47.330Z,77.30
2018-02-20T23:46:15.465Z,77.30
2018-02-20T23:48:43.583Z,77.40
2018-02-20T23:51:17.474Z,77.30
2018-02-20T23:53:45.588Z,77.80
2018-02-20T23:56:14.496Z,78.80
2018-02-20T23:58:42.624Z,78.80
